Terminal Aerodrome Forecast
Issued by NWS

Current Version | Previous Version | Text Only | Print | Product List | Glossary On
Versions: 1 2 3 4 5 6 7 8 9 10 11 12 13 14 15 16 17 18
000
FTUS43 KMKX 041126
TAFENW
TAF
KENW 041126Z 0412/0512 17004KT P6SM SCT030 OVC050
     FM041300 15005KT P6SM VCSH OVC035
     FM041500 15007KT 4SM -SN OVC020
     FM041600 16008KT 1 1/2SM -SN OVC008
      TEMPO 0418/0422 1/2SM SN OVC003
     FM050000 20006KT 1 1/2SM -SN OVC005
     FM050100 21006KT P6SM VCSH OVC008
     FM050300 23007KT P6SM OVC008
     FM051100 26006KT P6SM SCT025=

USA.gov is the U.S. government's official web portal to all federal, state and local government web resources and services.